Time;durP1;ratioP1;P1;durP2;ratioP2;P2;SDS_P1;SDS_P2;PMS_P1;PMS_P2;Temp;Humidity;BMP_temperature;BMP_pressure;BME280_temperature;BME280_humidity;BME280_pressure;Samples;Min_cycle;Max_cycle;Signal;HPM_P1;HPM_P2
2023/10/10 00:00:26;;;;;;;8.33;5.43;;;13.70;99.90;;;;;;5068274;28;20232;-78
2023/10/10 00:02:53;;;;;;;7.87;5.30;;;13.70;99.90;;;;;;5069306;28;20233;-77
2023/10/10 00:05:30;;;;;;;9.13;5.27;;;13.70;99.90;;;;;;5069564;28;20324;-77
2023/10/10 00:07:59;;;;;;;8.77;6.07;;;13.70;99.90;;;;;;5067154;28;20232;-78
2023/10/10 00:10:27;;;;;;;7.23;5.10;;;13.70;99.90;;;;;;5067325;28;20233;-79
2023/10/10 00:12:54;;;;;;;9.60;5.13;;;13.70;99.90;;;;;;5066275;28;20231;-79
2023/10/10 00:15:28;;;;;;;8.23;5.20;;;13.70;99.90;;;;;;5066715;28;20238;-79
2023/10/10 00:17:59;;;;;;;10.03;5.90;;;13.70;99.90;;;;;;5066175;28;20270;-78
2023/10/10 00:20:35;;;;;;;5.87;5.27;;;13.70;99.90;;;;;;5067859;28;20236;-78
2023/10/10 00:23:04;;;;;;;8.83;6.33;;;13.70;99.90;;;;;;5067790;28;20220;-77
2023/10/10 00:25:31;;;;;;;9.33;6.60;;;13.70;99.90;;;;;;5066363;28;20235;-78
2023/10/10 00:27:59;;;;;;;9.03;5.87;;;13.60;99.90;;;;;;5066822;28;20237;-77
2023/10/10 00:30:34;;;;;;;8.70;6.30;;;13.60;99.90;;;;;;5066935;28;20241;-79
2023/10/10 00:33:04;;;;;;;7.87;5.87;;;13.60;99.90;;;;;;5072527;28;20641;-78
2023/10/10 00:35:32;;;;;;;9.93;6.67;;;13.60;99.90;;;;;;5071649;28;20248;-77
2023/10/10 00:37:59;;;;;;;10.57;6.47;;;13.60;99.90;;;;;;5070142;28;20255;-78
2023/10/10 00:40:29;;;;;;;9.03;6.47;;;13.60;99.90;;;;;;5067511;28;20640;-78
2023/10/10 00:42:58;;;;;;;11.23;6.57;;;13.50;99.90;;;;;;5067039;28;20233;-77
2023/10/10 00:45:29;;;;;;;8.90;6.70;;;13.50;99.90;;;;;;5066788;28;20898;-77
2023/10/10 00:48:00;;;;;;;10.50;6.67;;;13.50;99.90;;;;;;5057841;28;20723;-78
2023/10/10 00:50:34;;;;;;;9.50;6.70;;;13.50;99.90;;;;;;5059913;28;20230;-78
2023/10/10 00:53:04;;;;;;;11.97;6.93;;;13.40;99.90;;;;;;5069230;28;20651;-78
2023/10/10 00:55:33;;;;;;;10.63;6.20;;;13.40;99.90;;;;;;5067766;28;20657;-79
2023/10/10 00:58:01;;;;;;;11.77;6.93;;;13.30;99.90;;;;;;5065364;28;20233;-78
2023/10/10 01:00:29;;;;;;;8.73;6.80;;;13.20;99.90;;;;;;5065679;28;20228;-77
2023/10/10 01:03:07;;;;;;;14.13;7.27;;;13.20;99.90;;;;;;5059280;28;20230;-78
2023/10/10 01:05:52;;;;;;;10.27;7.40;;;13.10;99.90;;;;;;5065910;28;20224;-77
2023/10/10 01:08:19;;;;;;;12.03;8.10;;;13.00;99.90;;;;;;5060566;28;20890;-77
2023/10/10 01:10:48;;;;;;;13.30;8.03;;;13.00;99.90;;;;;;5065805;28;20227;-77
2023/10/10 01:13:16;;;;;;;11.70;8.20;;;13.00;99.90;;;;;;5054183;28;20221;-77
2023/10/10 01:15:48;;;;;;;10.43;7.97;;;12.90;99.90;;;;;;5059201;28;20990;-77
2023/10/10 01:18:17;;;;;;;11.60;7.77;;;12.90;99.90;;;;;;5048760;28;20226;-77
2023/10/10 01:20:46;;;;;;;14.03;9.33;;;12.80;99.90;;;;;;5065268;28;20247;-77
2023/10/10 01:23:14;;;;;;;13.87;9.57;;;12.80;99.90;;;;;;5065174;28;20229;-77
2023/10/10 01:25:44;;;;;;;11.33;8.27;;;12.70;99.90;;;;;;5067970;28;20714;-78
2023/10/10 01:28:22;;;;;;;12.17;9.07;;;12.70;99.90;;;;;;5048646;28;20324;-77
2023/10/10 01:33:41;;;;;;;11.10;9.10;;;12.50;99.90;;;;;;5066696;28;20599;-78
2023/10/10 01:36:13;;;;;;;13.87;10.23;;;12.50;99.90;;;;;;5066863;28;20227;-77
2023/10/10 01:39:07;;;;;;;13.50;10.07;;;12.40;99.90;;;;;;5067922;28;20251;-77
2023/10/10 01:41:38;;;;;;;11.83;9.87;;;12.30;99.90;;;;;;5066204;28;20280;-78
2023/10/10 01:44:18;;;;;;;12.93;10.77;;;12.20;99.90;;;;;;5060056;28;20226;-77
2023/10/10 01:46:45;;;;;;;12.47;10.60;;;12.20;99.90;;;;;;5063019;28;20235;-79
2023/10/10 01:49:20;;;;;;;12.63;10.83;;;12.10;99.90;;;;;;5069307;28;20230;-78
2023/10/10 01:51:54;;;;;;;16.50;10.90;;;12.10;99.90;;;;;;5082005;28;20229;-78
2023/10/10 01:54:22;;;;;;;15.20;11.00;;;12.00;99.90;;;;;;5069156;28;20760;-78
2023/10/10 01:56:51;;;;;;;13.83;11.33;;;12.00;99.90;;;;;;5062944;28;20977;-78
2023/10/10 01:59:24;;;;;;;14.87;11.13;;;12.00;99.90;;;;;;5067291;28;20330;-78
2023/10/10 02:01:52;;;;;;;15.13;10.77;;;12.00;99.90;;;;;;5067953;28;20223;-78
2023/10/10 02:04:27;;;;;;;16.87;12.30;;;12.00;99.90;;;;;;5065343;28;20226;-77
2023/10/10 02:06:57;;;;;;;16.00;11.53;;;12.10;99.90;;;;;;5063826;28;20236;-77
2023/10/10 02:09:33;;;;;;;12.07;10.17;;;12.10;99.90;;;;;;5056487;28;20230;-77
2023/10/10 02:12:12;;;;;;;13.60;10.87;;;12.10;99.90;;;;;;5054756;28;20555;-79
2023/10/10 02:14:42;;;;;;;10.80;9.70;;;12.10;99.90;;;;;;5062872;28;20221;-77
2023/10/10 02:17:21;;;;;;;12.80;10.47;;;12.10;99.90;;;;;;5067203;28;20240;-78
2023/10/10 02:19:57;;;;;;;11.10;9.77;;;12.10;99.90;;;;;;5065960;28;20236;-78
2023/10/10 02:22:47;;;;;;;10.77;9.57;;;12.10;99.90;;;;;;5065859;28;20244;-77
2023/10/10 02:25:37;;;;;;;10.83;9.57;;;12.10;99.90;;;;;;5065431;28;20232;-77
2023/10/10 02:28:09;;;;;;;10.17;8.37;;;12.10;99.90;;;;;;5056515;28;20663;-77
2023/10/10 02:30:37;;;;;;;10.00;8.47;;;12.10;99.90;;;;;;5063080;28;20254;-77
2023/10/10 02:33:14;;;;;;;9.07;7.03;;;12.10;99.90;;;;;;5063520;28;20798;-77
2023/10/10 02:35:55;;;;;;;9.33;7.77;;;12.10;99.90;;;;;;5063289;28;20244;-76
2023/10/10 02:38:34;;;;;;;9.60;7.83;;;12.00;99.90;;;;;;5064371;28;20239;-77
2023/10/10 02:43:56;;;;;;;10.47;8.67;;;12.00;99.90;;;;;;5062910;28;20780;-77
2023/10/10 02:46:33;;;;;;;9.87;8.23;;;11.90;99.90;;;;;;5042649;28;20235;-77
2023/10/10 02:49:09;;;;;;;10.50;8.37;;;11.90;99.90;;;;;;5042962;28;20658;-76
2023/10/10 02:51:40;;;;;;;11.53;8.90;;;11.90;99.90;;;;;;5052700;28;20219;-78
2023/10/10 02:54:27;;;;;;;12.27;9.03;;;11.90;99.90;;;;;;5062302;28;20228;-77
2023/10/10 02:56:56;;;;;;;12.67;9.47;;;11.80;99.90;;;;;;5062237;28;20221;-77
2023/10/10 02:59:23;;;;;;;10.73;8.10;;;11.80;99.90;;;;;;5064730;28;20226;-77
2023/10/10 03:01:56;;;;;;;12.10;9.00;;;11.80;99.90;;;;;;5066140;28;20235;-78
2023/10/10 03:04:41;;;;;;;13.23;9.50;;;11.80;99.90;;;;;;5040073;28;20215;-78
2023/10/10 03:07:08;;;;;;;10.57;8.67;;;11.80;99.90;;;;;;5064771;28;20227;-78
2023/10/10 03:10:05;;;;;;;14.67;9.90;;;11.80;99.90;;;;;;5052428;28;20598;-79
2023/10/10 03:12:29;;;;;;;13.07;10.17;;;11.80;99.90;;;;;;5055261;28;20215;-79
2023/10/10 03:15:12;;;;;;;13.93;11.27;;;11.80;99.90;;;;;;5072199;28;20234;-78
2023/10/10 03:17:48;;;;;;;15.13;12.20;;;11.80;99.90;;;;;;5066240;28;20212;-81
2023/10/10 03:20:25;;;;;;;15.70;11.67;;;11.80;99.90;;;;;;5060391;28;20256;-79
2023/10/10 03:23:18;;;;;;;15.20;12.40;;;11.80;99.90;;;;;;5064785;28;20252;-80
2023/10/10 03:25:51;;;;;;;16.13;12.07;;;11.70;99.90;;;;;;5067076;28;20235;-78
2023/10/10 03:28:20;;;;;;;14.77;12.93;;;11.70;99.90;;;;;;5067648;28;20287;-78
2023/10/10 03:30:51;;;;;;;15.83;12.87;;;11.80;99.90;;;;;;5066533;28;20926;-78
2023/10/10 05:23:48;;;;;;;24.30;17.53;;;12.10;99.90;;;;;;5063002;28;20221;-79
2023/10/10 05:26:18;;;;;;;22.80;16.67;;;12.10;99.90;;;;;;5058617;28;20240;-79
2023/10/10 05:28:46;;;;;;;22.53;15.90;;;12.10;99.90;;;;;;5056430;28;20786;-81
2023/10/10 05:31:18;;;;;;;20.37;15.40;;;12.10;99.90;;;;;;5056705;28;20309;-82
2023/10/10 05:33:47;;;;;;;23.37;14.80;;;12.10;99.90;;;;;;5057974;28;20236;-81
2023/10/10 05:36:18;;;;;;;23.00;15.90;;;12.20;99.90;;;;;;5061453;28;20225;-83
2023/10/10 05:38:46;;;;;;;21.97;15.13;;;12.20;99.90;;;;;;5062148;28;20242;-81
2023/10/10 05:41:13;;;;;;;22.23;15.53;;;12.20;99.90;;;;;;5056489;28;20334;-81
2023/10/10 05:43:40;;;;;;;23.03;16.07;;;12.20;99.90;;;;;;5061313;28;20233;-83
2023/10/10 05:46:08;;;;;;;19.50;14.83;;;12.20;99.90;;;;;;5060531;28;20278;-82
2023/10/10 05:48:36;;;;;;;24.83;15.73;;;12.20;99.90;;;;;;5063483;28;20225;-81
2023/10/10 05:51:04;;;;;;;19.90;14.40;;;12.30;99.90;;;;;;5061905;28;20234;-82
2023/10/10 05:53:33;;;;;;;49.17;34.67;;;12.30;99.90;;;;;;5057652;28;20227;-83
2023/10/10 05:56:12;;;;;;;30.80;22.17;;;12.30;99.90;;;;;;5060745;28;20219;-84
2023/10/10 05:58:42;;;;;;;22.13;16.20;;;12.30;99.90;;;;;;5048561;28;20760;-82
2023/10/10 06:01:12;;;;;;;25.73;19.23;;;12.30;99.90;;;;;;5047744;28;20227;-84
2023/10/10 06:03:40;;;;;;;21.73;15.60;;;12.40;99.90;;;;;;5053282;28;20219;-81
2023/10/10 06:06:07;;;;;;;19.83;15.00;;;12.40;99.90;;;;;;5060393;28;20220;-79
2023/10/10 06:08:36;;;;;;;20.30;15.77;;;12.40;99.90;;;;;;5058181;28;20706;-78
2023/10/10 06:11:04;;;;;;;23.17;16.27;;;12.40;99.90;;;;;;5060484;28;20304;-79
2023/10/10 06:13:33;;;;;;;21.30;16.13;;;12.40;99.90;;;;;;5058515;28;20226;-80
2023/10/10 06:16:07;;;;;;;20.57;15.63;;;12.50;99.90;;;;;;5056722;28;20244;-80
2023/10/10 06:18:33;;;;;;;22.83;15.57;;;12.50;99.90;;;;;;5056846;28;20435;-80
2023/10/10 06:21:07;;;;;;;22.80;16.10;;;12.50;99.90;;;;;;5057438;28;20337;-79
2023/10/10 06:23:35;;;;;;;21.47;14.77;;;12.50;99.90;;;;;;5056290;28;20761;-83
2023/10/10 06:26:02;;;;;;;20.77;15.87;;;12.50;99.90;;;;;;5056702;28;20239;-79
2023/10/10 06:28:35;;;;;;;26.13;17.37;;;12.60;99.90;;;;;;5050888;28;20231;-79
2023/10/10 06:31:04;;;;;;;28.13;17.70;;;12.60;99.90;;;;;;5056299;28;20920;-80
2023/10/10 06:33:32;;;;;;;27.63;17.03;;;12.60;99.90;;;;;;5053221;28;20247;-81
2023/10/10 06:36:18;;;;;;;34.90;17.67;;;12.60;99.90;;;;;;5058856;28;20218;-81
2023/10/10 06:39:18;;;;;;;28.23;18.10;;;12.70;99.90;;;;;;5061632;28;20233;-83
2023/10/10 06:41:48;;;;;;;24.83;17.07;;;12.70;99.90;;;;;;5058173;28;20711;-80
2023/10/10 06:44:17;;;;;;;23.73;17.27;;;12.70;99.90;;;;;;5052869;28;20229;-80
2023/10/10 06:46:48;;;;;;;28.50;17.93;;;12.70;99.90;;;;;;5058988;28;20320;-80
2023/10/10 06:49:15;;;;;;;27.43;18.37;;;12.80;99.90;;;;;;5063095;28;20336;-80
2023/10/10 06:51:42;;;;;;;26.03;16.33;;;12.80;99.90;;;;;;5052899;28;22242;-79
2023/10/10 06:54:19;;;;;;;26.80;17.10;;;12.80;99.90;;;;;;5052279;28;20216;-80
2023/10/10 06:56:54;;;;;;;31.07;18.40;;;12.80;99.90;;;;;;5058098;28;20230;-80
2023/10/10 06:59:26;;;;;;;25.07;16.70;;;12.90;99.90;;;;;;5053959;28;20437;-80
2023/10/10 07:01:53;;;;;;;28.47;18.33;;;12.90;99.90;;;;;;5060454;28;20889;-81
2023/10/10 07:04:20;;;;;;;32.57;20.27;;;12.90;99.90;;;;;;5054685;28;20699;-80
2023/10/10 07:06:48;;;;;;;32.30;18.57;;;13.00;99.90;;;;;;5062670;28;20338;-80
2023/10/10 07:09:27;;;;;;;34.37;20.03;;;13.00;99.90;;;;;;5052684;28;20231;-80
2023/10/10 07:11:54;;;;;;;31.50;19.07;;;13.00;99.90;;;;;;5057476;28;20661;-80
2023/10/10 07:14:22;;;;;;;31.03;18.83;;;13.00;99.90;;;;;;5058145;28;20227;-82
2023/10/10 07:16:48;;;;;;;32.10;17.60;;;13.10;99.90;;;;;;5054997;28;20247;-79
2023/10/10 07:19:26;;;;;;;33.27;18.80;;;13.10;99.90;;;;;;5045498;28;20234;-80
2023/10/10 07:21:53;;;;;;;32.33;18.03;;;13.10;99.90;;;;;;5057880;28;20230;-80
2023/10/10 07:24:28;;;;;;;32.80;18.83;;;13.10;99.90;;;;;;5053858;28;20227;-79
2023/10/10 07:27:05;;;;;;;32.73;18.93;;;13.10;99.90;;;;;;5057594;28;20221;-80
2023/10/10 07:29:57;;;;;;;32.67;19.43;;;13.20;99.90;;;;;;5057467;28;20225;-80
2023/10/10 07:32:27;;;;;;;31.97;17.90;;;13.20;99.90;;;;;;5047244;28;20527;-80
2023/10/10 07:34:54;;;;;;;34.90;18.07;;;13.20;99.90;;;;;;5055236;28;20753;-80
2023/10/10 07:37:22;;;;;;;38.93;20.17;;;13.20;99.90;;;;;;5050124;28;20249;-79
2023/10/10 07:39:57;;;;;;;34.27;18.83;;;13.20;99.90;;;;;;5050071;28;20428;-80
2023/10/10 07:42:29;;;;;;;35.10;18.90;;;13.20;99.90;;;;;;5051199;28;20749;-80
2023/10/10 07:44:56;;;;;;;36.87;19.13;;;13.30;99.90;;;;;;5049033;28;20439;-80
2023/10/10 07:47:26;;;;;;;33.77;17.57;;;13.20;99.90;;;;;;5061561;28;20861;-80
2023/10/10 07:49:53;;;;;;;36.37;18.27;;;13.20;99.90;;;;;;5069305;28;20903;-80
2023/10/10 07:52:23;;;;;;;40.00;19.23;;;13.30;99.90;;;;;;5065646;28;20226;-80
2023/10/10 07:55:02;;;;;;;35.90;18.57;;;13.20;99.90;;;;;;5061259;28;20224;-79
2023/10/10 07:57:46;;;;;;;35.73;18.87;;;13.30;99.90;;;;;;5052822;28;20216;-79
2023/10/10 08:00:17;;;;;;;34.47;17.63;;;13.30;99.90;;;;;;5059132;28;20226;-79
2023/10/10 08:02:49;;;;;;;33.97;17.17;;;13.30;99.90;;;;;;5062052;28;20332;-79
2023/10/10 08:05:19;;;;;;;30.57;17.50;;;13.30;99.90;;;;;;5058308;28;20336;-79
2023/10/10 08:07:46;;;;;;;37.13;19.60;;;13.40;99.90;;;;;;5062386;28;20225;-79
2023/10/10 08:10:29;;;;;;;33.57;17.83;;;13.30;99.90;;;;;;5055399;28;20221;-79
2023/10/10 08:12:57;;;;;;;30.23;15.80;;;13.40;99.90;;;;;;5062718;28;20218;-79
2023/10/10 08:15:25;;;;;;;29.37;16.30;;;13.40;99.90;;;;;;5062536;28;20406;-79
2023/10/10 08:17:53;;;;;;;28.27;17.43;;;13.40;99.90;;;;;;5055552;28;20954;-79
2023/10/10 08:21:06;;;;;;;33.87;16.97;;;13.40;99.90;;;;;;5058620;28;20804;-79
2023/10/10 08:23:24;;;;;;;27.70;15.17;;;13.40;99.90;;;;;;5060477;28;20287;-79
2023/10/10 08:25:52;;;;;;;27.97;15.43;;;13.50;99.90;;;;;;5054607;28;20226;-79
2023/10/10 08:28:21;;;;;;;27.77;15.63;;;13.50;99.90;;;;;;5058164;28;20312;-79
2023/10/10 08:30:48;;;;;;;28.10;15.83;;;13.60;99.90;;;;;;5057314;28;20783;-79
2023/10/10 08:33:15;;;;;;;23.77;14.93;;;13.60;99.90;;;;;;5055071;28;20283;-79
2023/10/10 08:35:42;;;;;;;24.80;14.77;;;13.60;99.90;;;;;;5056882;28;20233;-79
2023/10/10 08:38:13;;;;;;;21.27;13.47;;;13.60;99.90;;;;;;5062323;28;20317;-79
2023/10/10 08:40:41;;;;;;;21.90;13.17;;;13.60;99.90;;;;;;5058909;28;20273;-80
2023/10/10 08:43:10;;;;;;;19.20;12.60;;;13.60;99.90;;;;;;5061436;28;20769;-79
2023/10/10 08:45:39;;;;;;;22.43;13.10;;;13.70;99.90;;;;;;5075825;28;20824;-80
2023/10/10 08:48:12;;;;;;;20.43;12.50;;;13.70;99.90;;;;;;5062219;28;20626;-80
2023/10/10 08:50:40;;;;;;;18.30;12.07;;;13.70;99.90;;;;;;5056878;28;20221;-79
2023/10/10 08:53:09;;;;;;;19.47;11.90;;;13.80;99.90;;;;;;5053210;28;20233;-79
2023/10/10 08:55:38;;;;;;;19.90;12.00;;;13.80;99.90;;;;;;5059665;28;20219;-79
2023/10/10 08:58:07;;;;;;;18.60;11.47;;;13.80;99.90;;;;;;5059570;28;20222;-79
2023/10/10 09:00:37;;;;;;;18.27;12.07;;;13.90;99.90;;;;;;5055932;28;20721;-79
2023/10/10 09:03:07;;;;;;;17.10;11.40;;;13.90;99.90;;;;;;5061249;28;20280;-79
2023/10/10 09:05:34;;;;;;;18.53;12.10;;;13.90;99.90;;;;;;5053316;28;20223;-80
2023/10/10 09:08:14;;;;;;;18.10;11.90;;;13.90;99.90;;;;;;5058936;28;20329;-80
2023/10/10 09:10:41;;;;;;;17.30;11.43;;;14.00;99.90;;;;;;5046721;28;20224;-80
2023/10/10 09:13:09;;;;;;;15.83;11.27;;;14.10;99.90;;;;;;5049370;28;20313;-79
2023/10/10 09:15:40;;;;;;;18.63;11.90;;;14.10;99.90;;;;;;5057308;28;20233;-79
2023/10/10 09:18:28;;;;;;;16.00;11.57;;;14.20;99.90;;;;;;5055486;28;20228;-79
2023/10/10 09:21:17;;;;;;;15.80;10.33;;;14.20;99.90;;;;;;5037254;28;20764;-80
2023/10/10 09:23:52;;;;;;;15.30;11.30;;;14.30;99.90;;;;;;5049993;28;20289;-79
2023/10/10 09:26:29;;;;;;;19.13;10.50;;;14.40;99.90;;;;;;5054591;28;20229;-80
2023/10/10 09:28:58;;;;;;;17.03;11.07;;;14.50;99.90;;;;;;5051636;28;20222;-81
2023/10/10 09:31:31;;;;;;;17.63;10.47;;;14.50;99.90;;;;;;5055443;28;20279;-81
2023/10/10 09:34:02;;;;;;;15.63;10.23;;;14.60;99.90;;;;;;5054369;28;20228;-80
2023/10/10 09:36:29;;;;;;;14.10;9.57;;;14.70;99.90;;;;;;5058443;28;20224;-81
2023/10/10 09:39:08;;;;;;;15.00;10.23;;;14.70;99.90;;;;;;5057293;28;20277;-81
2023/10/10 09:41:37;;;;;;;13.53;9.73;;;14.80;99.90;;;;;;5056863;28;21479;-81
2023/10/10 09:44:49;;;;;;;12.10;9.33;;;14.90;99.90;;;;;;5056581;28;20212;-81
2023/10/10 09:47:36;;;;;;;14.23;8.93;;;15.00;99.90;;;;;;5057693;28;20219;-81
2023/10/10 09:52:50;;;;;;;10.40;8.90;;;15.20;99.90;;;;;;5053897;28;20691;-81
2023/10/10 09:55:39;;;;;;;11.40;8.23;;;15.30;99.90;;;;;;5049217;28;20324;-81
2023/10/10 09:58:24;;;;;;;10.70;8.07;;;15.30;99.90;;;;;;5057694;28;20302;-81
2023/10/10 10:00:52;;;;;;;11.17;7.77;;;15.50;99.90;;;;;;5052303;28;20227;-82
2023/10/10 10:03:42;;;;;;;10.43;8.43;;;15.50;99.90;;;;;;5056525;28;20231;-81
2023/10/10 10:06:35;;;;;;;9.90;8.23;;;15.60;99.90;;;;;;5051953;28;20225;-81
2023/10/10 10:09:45;;;;;;;12.33;8.97;;;15.70;99.90;;;;;;5058478;28;20226;-81
2023/10/10 10:12:42;;;;;;;10.13;8.27;;;15.80;99.90;;;;;;5056373;28;20303;-81
2023/10/10 10:15:28;;;;;;;10.13;9.03;;;15.90;99.90;;;;;;5069088;28;20222;-81
2023/10/10 10:18:11;;;;;;;9.77;8.67;;;16.00;99.90;;;;;;5064729;28;20223;-81
2023/10/10 10:20:46;;;;;;;11.10;7.10;;;16.20;99.90;;;;;;5061888;28;20413;-81
2023/10/10 10:23:18;;;;;;;8.50;7.10;;;16.30;99.90;;;;;;5056281;28;20284;-82
2023/10/10 10:26:04;;;;;;;8.40;7.40;;;16.50;99.90;;;;;;5061677;28;20237;-81
2023/10/10 10:28:35;;;;;;;8.73;6.10;;;16.60;99.90;;;;;;5061396;28;20230;-81
2023/10/10 10:31:05;;;;;;;5.83;5.30;;;16.80;99.90;;;;;;5060910;28;20234;-81
2023/10/10 10:33:33;;;;;;;5.43;4.60;;;17.00;99.90;;;;;;5058236;28;20250;-81
2023/10/10 10:36:16;;;;;;;5.93;4.10;;;17.20;99.90;;;;;;5059467;28;20226;-81
2023/10/10 10:41:42;;;;;;;5.73;4.10;;;17.50;99.90;;;;;;5059265;28;20317;-82
2023/10/10 10:44:09;;;;;;;6.57;4.60;;;17.60;99.90;;;;;;5055741;28;20225;-82
2023/10/10 10:46:39;;;;;;;8.63;4.30;;;17.70;99.90;;;;;;5059629;28;20228;-82
2023/10/10 10:49:12;;;;;;;8.40;4.73;;;17.80;99.90;;;;;;5060387;28;20223;-82
2023/10/10 10:51:43;;;;;;;5.30;4.43;;;17.80;99.90;;;;;;5065320;28;20226;-82
2023/10/10 10:54:29;;;;;;;4.90;4.20;;;17.90;99.90;;;;;;5056043;28;20220;-85
2023/10/10 10:57:02;;;;;;;6.10;4.20;;;17.90;99.90;;;;;;5055400;28;20220;-84
2023/10/10 10:59:35;;;;;;;4.53;3.13;;;17.80;99.90;;;;;;5051310;28;20316;-85
2023/10/10 11:02:13;;;;;;;4.97;3.20;;;17.80;99.90;;;;;;5051347;28;20212;-85
2023/10/10 11:04:46;;;;;;;5.53;3.07;;;17.80;99.90;;;;;;5062367;28;21068;-86
2023/10/10 11:07:26;;;;;;;5.07;2.50;;;17.80;99.90;;;;;;5062178;28;20224;-85
2023/10/10 11:09:54;;;;;;;4.90;3.10;;;17.80;99.90;;;;;;5056059;28;20226;-84
2023/10/10 11:12:31;;;;;;;3.13;2.50;;;17.70;99.90;;;;;;5069831;28;20712;-84
2023/10/10 11:15:04;;;;;;;4.83;2.57;;;17.70;99.90;;;;;;5057798;28;20237;-84
2023/10/10 11:17:37;;;;;;;3.70;2.47;;;17.70;99.90;;;;;;5060763;28;20321;-83
2023/10/10 11:20:27;;;;;;;3.40;2.13;;;17.80;99.90;;;;;;5060311;28;20254;-85
2023/10/10 11:23:06;;;;;;;3.77;2.40;;;18.00;99.90;;;;;;5058051;28;20686;-82
2023/10/10 11:25:45;;;;;;;3.53;2.60;;;18.10;99.90;;;;;;5062332;28;20234;-81
2023/10/10 11:28:21;;;;;;;4.50;3.17;;;18.30;99.90;;;;;;5064229;28;20243;-82
2023/10/10 11:30:50;;;;;;;5.50;2.87;;;18.50;99.90;;;;;;5062838;28;20277;-82
2023/10/10 11:33:46;;;;;;;4.13;2.70;;;18.80;99.90;;;;;;5059050;28;20820;-82
2023/10/10 11:36:24;;;;;;;2.90;2.15;;;19.00;99.90;;;;;;5067331;28;20219;-82
2023/10/10 11:38:55;;;;;;;3.50;2.72;;;19.20;99.90;;;;;;5062265;28;20227;-82
2023/10/10 11:41:28;;;;;;;3.78;2.28;;;19.40;99.90;;;;;;5063189;28;20220;-82
2023/10/10 11:44:01;;;;;;;3.53;2.67;;;19.60;99.90;;;;;;5060382;28;20816;-82
2023/10/10 11:46:28;;;;;;;6.45;2.63;;;19.70;99.90;;;;;;5061066;28;20234;-82
2023/10/10 11:48:55;;;;;;;3.83;2.20;;;19.80;99.90;;;;;;5067046;28;20224;-82
2023/10/10 11:51:33;;;;;;;3.40;2.20;;;19.90;99.90;;;;;;5058794;28;20284;-82
2023/10/10 11:54:01;;;;;;;4.78;2.40;;;20.00;99.90;;;;;;5056707;28;20310;-82
2023/10/10 11:56:31;;;;;;;2.83;2.30;;;20.10;99.90;;;;;;5057402;28;20231;-82
2023/10/10 11:58:58;;;;;;;3.63;2.28;;;20.20;99.90;;;;;;5060710;28;20607;-82
2023/10/10 12:01:49;;;;;;;2.92;2.00;;;20.20;99.90;;;;;;5058346;28;20232;-82
2023/10/10 12:04:30;;;;;;;5.63;2.95;;;20.20;99.90;;;;;;5065682;28;20594;-82
2023/10/10 12:06:59;;;;;;;2.40;1.85;;;20.30;99.90;;;;;;5063904;28;20219;-81
2023/10/10 12:09:27;;;;;;;3.28;2.17;;;20.30;99.90;;;;;;5059397;28;21040;-82
2023/10/10 12:11:58;;;;;;;3.60;2.38;;;20.30;99.90;;;;;;5062933;28;20231;-82
2023/10/10 12:14:30;;;;;;;3.58;1.98;;;20.30;99.90;;;;;;5059638;28;20782;-82
2023/10/10 12:17:05;;;;;;;3.22;1.90;;;20.40;99.90;;;;;;5066070;28;20216;-82
2023/10/10 12:19:36;;;;;;;4.25;2.05;;;20.40;99.90;;;;;;5057826;28;20748;-82
2023/10/10 12:22:07;;;;;;;2.05;1.60;;;20.50;99.90;;;;;;5061018;28;20282;-82
2023/10/10 12:24:36;;;;;;;4.05;1.92;;;20.50;99.90;;;;;;5059174;28;20769;-82
2023/10/10 12:27:07;;;;;;;4.03;1.83;;;20.60;99.90;;;;;;5066817;28;20827;-82
2023/10/10 12:29:39;;;;;;;2.85;1.60;;;20.60;99.90;;;;;;5066816;28;20286;-85
2023/10/10 12:32:15;;;;;;;2.42;1.80;;;20.60;99.90;;;;;;5060806;28;20211;-83
2023/10/10 12:34:43;;;;;;;3.20;1.92;;;20.60;99.90;;;;;;5060115;28;20277;-83
2023/10/10 12:37:10;;;;;;;3.05;1.98;;;20.60;99.90;;;;;;5059590;28;20246;-82
2023/10/10 12:39:39;;;;;;;4.07;1.83;;;20.50;99.90;;;;;;5053317;28;20303;-83
2023/10/10 12:42:07;;;;;;;3.47;1.83;;;20.40;99.90;;;;;;5058634;28;20220;-84
2023/10/10 12:44:34;;;;;;;2.72;1.70;;;20.30;99.90;;;;;;5060121;28;20227;-84
2023/10/10 12:47:06;;;;;;;3.43;1.83;;;20.20;99.90;;;;;;5059803;28;20595;-84
2023/10/10 12:49:44;;;;;;;3.35;1.90;;;20.10;99.90;;;;;;5061956;28;20258;-84
2023/10/10 12:52:12;;;;;;;3.67;1.77;;;20.00;99.90;;;;;;5057986;28;20220;-83
2023/10/10 12:54:41;;;;;;;2.75;1.90;;;20.00;99.90;;;;;;5064966;28;20220;-83
2023/10/10 12:57:13;;;;;;;4.13;1.67;;;19.90;99.90;;;;;;5054602;28;20225;-81
2023/10/10 12:59:46;;;;;;;2.47;2.00;;;19.90;99.90;;;;;;5056391;28;20289;-82
2023/10/10 13:02:16;;;;;;;2.00;1.42;;;19.90;99.90;;;;;;5051334;28;20227;-79
2023/10/10 13:04:46;;;;;;;3.95;1.65;;;19.80;99.90;;;;;;5051293;28;20258;-80
2023/10/10 13:07:16;;;;;;;2.27;1.80;;;19.80;99.90;;;;;;5057835;28;20220;-79
2023/10/10 13:09:46;;;;;;;3.00;1.80;;;19.80;99.90;;;;;;5053248;28;20236;-78
2023/10/10 13:12:27;;;;;;;4.23;1.97;;;19.70;99.90;;;;;;5050077;28;20224;-78
2023/10/10 13:15:05;;;;;;;2.50;1.77;;;19.70;99.90;;;;;;5059841;28;20223;-79
2023/10/10 13:17:49;;;;;;;2.30;1.70;;;19.70;99.90;;;;;;5049984;28;20669;-79
2023/10/10 13:20:17;;;;;;;4.43;2.00;;;19.80;99.90;;;;;;5046680;28;20216;-80
2023/10/10 13:22:46;;;;;;;3.60;2.10;;;19.80;99.90;;;;;;5057053;28;20588;-80
2023/10/10 13:25:14;;;;;;;2.83;1.90;;;19.90;99.90;;;;;;5052047;28;20228;-80
2023/10/10 13:27:41;;;;;;;3.07;2.27;;;19.90;99.90;;;;;;5051242;28;20307;-79
2023/10/10 13:30:09;;;;;;;3.25;2.13;;;20.00;99.90;;;;;;5050010;28;20270;-79
2023/10/10 13:32:35;;;;;;;5.07;2.70;;;20.00;99.90;;;;;;5055605;28;20219;-79
2023/10/10 13:35:02;;;;;;;5.00;2.40;;;20.00;99.90;;;;;;5059167;28;20231;-81
2023/10/10 13:37:31;;;;;;;3.25;2.35;;;20.00;99.90;;;;;;5059447;28;20230;-78
2023/10/10 13:39:59;;;;;;;4.95;2.33;;;20.00;99.90;;;;;;5051446;28;20228;-80
2023/10/10 13:42:28;;;;;;;9.90;4.00;;;19.90;99.90;;;;;;5055178;28;20841;-78
2023/10/10 13:45:09;;;;;;;7.22;3.60;;;19.90;99.90;;;;;;5043943;28;20615;-79
2023/10/10 13:47:39;;;;;;;3.83;2.90;;;19.80;99.90;;;;;;5047250;28;20228;-79
2023/10/10 13:50:28;;;;;;;3.60;2.93;;;19.80;99.90;;;;;;5046207;28;20227;-79
2023/10/10 13:52:55;;;;;;;4.77;3.43;;;19.70;99.90;;;;;;5045985;28;20314;-78
2023/10/10 13:55:23;;;;;;;7.43;3.60;;;19.60;99.90;;;;;;5031028;28;20285;-78
2023/10/10 13:57:53;;;;;;;6.23;3.90;;;19.50;99.90;;;;;;5059769;28;20235;-78
2023/10/10 14:00:29;;;;;;;6.90;3.63;;;19.30;99.90;;;;;;5052045;28;20231;-78
2023/10/10 14:03:03;;;;;;;4.80;3.90;;;19.20;99.90;;;;;;5051394;28;20643;-78
2023/10/10 14:05:32;;;;;;;7.93;4.37;;;19.10;99.90;;;;;;5049835;28;20223;-78
2023/10/10 14:07:59;;;;;;;5.40;4.05;;;18.90;99.90;;;;;;5064494;28;20232;-78
2023/10/10 14:10:25;;;;;;;4.93;4.13;;;18.80;99.90;;;;;;5055587;28;20657;-78
2023/10/10 14:12:55;;;;;;;5.57;4.63;;;18.70;99.90;;;;;;5050961;28;20223;-78
2023/10/10 14:15:22;;;;;;;7.03;4.40;;;18.60;99.90;;;;;;5050198;28;20289;-79
2023/10/10 14:17:49;;;;;;;8.53;4.70;;;18.50;99.90;;;;;;5055316;28;20311;-78
2023/10/10 14:20:21;;;;;;;5.40;4.60;;;18.40;99.90;;;;;;5053071;28;20764;-78
2023/10/10 14:22:49;;;;;;;10.17;4.33;;;18.30;99.90;;;;;;5057451;28;20231;-78
2023/10/10 14:25:16;;;;;;;6.77;4.53;;;18.30;99.90;;;;;;5056801;28;20233;-80
2023/10/10 14:27:43;;;;;;;8.90;4.40;;;18.20;99.90;;;;;;5048924;28;20232;-78
2023/10/10 14:30:21;;;;;;;5.67;4.60;;;18.20;99.90;;;;;;5054327;28;20223;-80
2023/10/10 14:32:53;;;;;;;5.60;4.27;;;18.10;99.90;;;;;;5050586;28;20347;-79
2023/10/10 14:35:22;;;;;;;5.13;4.33;;;18.10;99.90;;;;;;5048704;28;20236;-78
2023/10/10 14:37:50;;;;;;;6.77;4.80;;;18.10;99.90;;;;;;5050994;28;20226;-80
2023/10/10 14:40:17;;;;;;;7.37;5.07;;;18.00;99.90;;;;;;5047450;28;20235;-80
2023/10/10 14:42:44;;;;;;;5.63;4.97;;;18.00;99.90;;;;;;5060020;28;20841;-78
2023/10/10 14:45:12;;;;;;;5.83;5.30;;;18.00;99.90;;;;;;5045692;28;20218;-79
2023/10/10 14:47:43;;;;;;;6.97;5.23;;;18.00;99.90;;;;;;5052402;28;20772;-80
2023/10/10 14:50:12;;;;;;;6.97;5.13;;;18.00;99.90;;;;;;5055090;28;20218;-78
2023/10/10 14:52:47;;;;;;;7.83;6.17;;;17.90;99.90;;;;;;5059595;28;20238;-80
2023/10/10 14:55:23;;;;;;;8.13;5.93;;;17.90;99.90;;;;;;5050474;28;20588;-78
2023/10/10 14:57:54;;;;;;;10.33;6.23;;;17.90;99.90;;;;;;5049350;28;20242;-81
2023/10/10 15:00:24;;;;;;;7.97;6.23;;;17.90;99.90;;;;;;5052321;28;20657;-80
2023/10/10 15:02:53;;;;;;;8.67;6.10;;;17.80;99.90;;;;;;5054598;28;20222;-80
2023/10/10 15:05:23;;;;;;;8.33;6.77;;;17.80;99.90;;;;;;5062941;28;20690;-80
2023/10/10 15:07:52;;;;;;;8.40;5.93;;;17.80;99.90;;;;;;5055274;28;20317;-81